sensor_id;sensor_type;location;lat;lon;timestamp;temperature;humidity
70154;DHT22;57519;51.494;-2.626;2023-08-06T00:02:00;13.65;80.49
70154;DHT22;57519;51.494;-2.626;2023-08-06T00:04:25;13.38;81.91
70154;DHT22;57519;51.494;-2.626;2023-08-06T00:06:51;13.21;81.73
70154;DHT22;57519;51.494;-2.626;2023-08-06T00:09:16;13.10;82.90
70154;DHT22;57519;51.494;-2.626;2023-08-06T00:11:42;12.97;82.79
70154;DHT22;57519;51.494;-2.626;2023-08-06T00:14:09;12.99;82.61
70154;DHT22;57519;51.494;-2.626;2023-08-06T00:16:35;13.09;81.81
70154;DHT22;57519;51.494;-2.626;2023-08-06T00:19:00;13.11;81.73
70154;DHT22;57519;51.494;-2.626;2023-08-06T00:21:26;13.06;82.56
70154;DHT22;57519;51.494;-2.626;2023-08-06T00:23:51;12.95;83.10
70154;DHT22;57519;51.494;-2.626;2023-08-06T00:26:17;12.75;83.57
70154;DHT22;57519;51.494;-2.626;2023-08-06T00:28:42;12.58;84.55
70154;DHT22;57519;51.494;-2.626;2023-08-06T00:31:08;12.46;85.00
70154;DHT22;57519;51.494;-2.626;2023-08-06T00:33:33;12.42;84.88
70154;DHT22;57519;51.494;-2.626;2023-08-06T00:35:59;12.32;85.20
70154;DHT22;57519;51.494;-2.626;2023-08-06T00:38:24;12.28;85.69
70154;DHT22;57519;51.494;-2.626;2023-08-06T00:40:50;12.18;86.27
70154;DHT22;57519;51.494;-2.626;2023-08-06T00:43:15;12.24;85.70
70154;DHT22;57519;51.494;-2.626;2023-08-06T00:45:40;12.17;85.97
70154;DHT22;57519;51.494;-2.626;2023-08-06T00:48:06;12.14;86.30
70154;DHT22;57519;51.494;-2.626;2023-08-06T00:50:32;12.16;86.43
70154;DHT22;57519;51.494;-2.626;2023-08-06T00:52:58;12.18;85.99
70154;DHT22;57519;51.494;-2.626;2023-08-06T00:55:24;12.13;86.50
70154;DHT22;57519;51.494;-2.626;2023-08-06T00:57:50;12.27;85.48
70154;DHT22;57519;51.494;-2.626;2023-08-06T01:00:18;12.25;86.00
70154;DHT22;57519;51.494;-2.626;2023-08-06T01:02:45;12.32;85.72
70154;DHT22;57519;51.494;-2.626;2023-08-06T01:05:11;12.16;85.74
70154;DHT22;57519;51.494;-2.626;2023-08-06T01:15:29;12.28;86.28
70154;DHT22;57519;51.494;-2.626;2023-08-06T01:17:56;12.20;86.16
70154;DHT22;57519;51.494;-2.626;2023-08-06T01:20:27;12.07;86.88
70154;DHT22;57519;51.494;-2.626;2023-08-06T01:22:53;11.90;87.16
70154;DHT22;57519;51.494;-2.626;2023-08-06T01:25:18;11.86;87.76
70154;DHT22;57519;51.494;-2.626;2023-08-06T01:27:53;11.70;87.93
70154;DHT22;57519;51.494;-2.626;2023-08-06T01:30:31;11.77;88.38
70154;DHT22;57519;51.494;-2.626;2023-08-06T01:33:03;11.77;88.34
70154;DHT22;57519;51.494;-2.626;2023-08-06T01:35:29;11.73;88.38
70154;DHT22;57519;51.494;-2.626;2023-08-06T01:37:55;11.87;87.82
70154;DHT22;57519;51.494;-2.626;2023-08-06T01:40:21;11.94;87.45
70154;DHT22;57519;51.494;-2.626;2023-08-06T01:42:47;12.03;87.27
70154;DHT22;57519;51.494;-2.626;2023-08-06T01:45:13;12.00;87.35
70154;DHT22;57519;51.494;-2.626;2023-08-06T01:47:38;12.00;87.37
70154;DHT22;57519;51.494;-2.626;2023-08-06T01:50:04;12.10;87.07
70154;DHT22;57519;51.494;-2.626;2023-08-06T01:52:29;12.17;87.01
70154;DHT22;57519;51.494;-2.626;2023-08-06T01:54:55;12.18;86.82
70154;DHT22;57519;51.494;-2.626;2023-08-06T01:57:21;12.20;86.90
70154;DHT22;57519;51.494;-2.626;2023-08-06T01:59:46;12.03;87.13
70154;DHT22;57519;51.494;-2.626;2023-08-06T02:02:12;11.98;87.51
70154;DHT22;57519;51.494;-2.626;2023-08-06T02:04:37;11.87;87.77
70154;DHT22;57519;51.494;-2.626;2023-08-06T02:07:03;11.73;88.63
70154;DHT22;57519;51.494;-2.626;2023-08-06T02:09:28;11.61;88.73
70154;DHT22;57519;51.494;-2.626;2023-08-06T02:11:53;11.48;89.17
70154;DHT22;57519;51.494;-2.626;2023-08-06T02:14:19;11.43;89.58
70154;DHT22;57519;51.494;-2.626;2023-08-06T02:16:44;11.39;89.63
70154;DHT22;57519;51.494;-2.626;2023-08-06T02:19:10;11.43;89.79
70154;DHT22;57519;51.494;-2.626;2023-08-06T02:21:35;11.48;89.72
70154;DHT22;57519;51.494;-2.626;2023-08-06T02:24:01;11.52;89.71
70154;DHT22;57519;51.494;-2.626;2023-08-06T02:26:26;11.62;88.79
70154;DHT22;57519;51.494;-2.626;2023-08-06T02:28:51;11.56;88.85
70154;DHT22;57519;51.494;-2.626;2023-08-06T02:31:17;11.45;89.07
70154;DHT22;57519;51.494;-2.626;2023-08-06T02:33:42;11.39;89.49
70154;DHT22;57519;51.494;-2.626;2023-08-06T02:36:08;11.63;89.12
70154;DHT22;57519;51.494;-2.626;2023-08-06T02:38:33;11.59;88.95
70154;DHT22;57519;51.494;-2.626;2023-08-06T02:41:02;11.61;89.14
70154;DHT22;57519;51.494;-2.626;2023-08-06T02:43:29;11.49;89.03
70154;DHT22;57519;51.494;-2.626;2023-08-06T02:45:59;11.46;89.29
70154;DHT22;57519;51.494;-2.626;2023-08-06T02:48:25;11.31;89.41
70154;DHT22;57519;51.494;-2.626;2023-08-06T02:50:51;11.27;90.03
70154;DHT22;57519;51.494;-2.626;2023-08-06T02:53:16;11.19;89.89
70154;DHT22;57519;51.494;-2.626;2023-08-06T02:55:46;11.11;90.41
70154;DHT22;57519;51.494;-2.626;2023-08-06T02:58:15;11.08;90.55
70154;DHT22;57519;51.494;-2.626;2023-08-06T03:00:41;10.98;90.62
70154;DHT22;57519;51.494;-2.626;2023-08-06T03:03:08;10.87;90.71
70154;DHT22;57519;51.494;-2.626;2023-08-06T03:05:34;10.87;91.53
70154;DHT22;57519;51.494;-2.626;2023-08-06T03:07:59;10.83;91.21
70154;DHT22;57519;51.494;-2.626;2023-08-06T03:10:24;10.87;91.33
70154;DHT22;57519;51.494;-2.626;2023-08-06T03:12:50;10.89;91.11
70154;DHT22;57519;51.494;-2.626;2023-08-06T03:15:15;10.91;91.30
70154;DHT22;57519;51.494;-2.626;2023-08-06T03:17:41;10.96;91.28
70154;DHT22;57519;51.494;-2.626;2023-08-06T03:20:06;10.98;91.06
70154;DHT22;57519;51.494;-2.626;2023-08-06T03:22:32;10.89;90.91
70154;DHT22;57519;51.494;-2.626;2023-08-06T03:24:57;10.83;91.07
70154;DHT22;57519;51.494;-2.626;2023-08-06T03:27:23;10.77;91.02
70154;DHT22;57519;51.494;-2.626;2023-08-06T03:29:49;10.71;91.22
70154;DHT22;57519;51.494;-2.626;2023-08-06T03:32:15;10.64;91.18
70154;DHT22;57519;51.494;-2.626;2023-08-06T03:34:40;10.66;91.68
70154;DHT22;57519;51.494;-2.626;2023-08-06T03:37:06;10.62;91.70
70154;DHT22;57519;51.494;-2.626;2023-08-06T03:39:31;10.59;91.57
70154;DHT22;57519;51.494;-2.626;2023-08-06T03:41:57;10.50;91.76
70154;DHT22;57519;51.494;-2.626;2023-08-06T03:44:22;10.55;91.85
70154;DHT22;57519;51.494;-2.626;2023-08-06T03:46:48;10.49;91.63
70154;DHT22;57519;51.494;-2.626;2023-08-06T03:51:38;10.46;92.15
70154;DHT22;57519;51.494;-2.626;2023-08-06T03:54:04;10.35;91.89
70154;DHT22;57519;51.494;-2.626;2023-08-06T03:56:29;10.39;92.14
70154;DHT22;57519;51.494;-2.626;2023-08-06T03:58:55;10.45;91.98
70154;DHT22;57519;51.494;-2.626;2023-08-06T04:01:20;10.49;91.95
70154;DHT22;57519;51.494;-2.626;2023-08-06T04:03:45;10.36;91.63
70154;DHT22;57519;51.494;-2.626;2023-08-06T04:06:12;10.23;91.71
70154;DHT22;57519;51.494;-2.626;2023-08-06T04:08:37;10.23;92.03
70154;DHT22;57519;51.494;-2.626;2023-08-06T04:11:03;10.18;91.87
70154;DHT22;57519;51.494;-2.626;2023-08-06T04:13:28;10.06;92.16
70154;DHT22;57519;51.494;-2.626;2023-08-06T04:15:54;10.05;92.28
70154;DHT22;57519;51.494;-2.626;2023-08-06T04:18:19;10.12;92.29
70154;DHT22;57519;51.494;-2.626;2023-08-06T04:20:46;9.98;92.11
70154;DHT22;57519;51.494;-2.626;2023-08-06T04:23:12;9.97;92.43
70154;DHT22;57519;51.494;-2.626;2023-08-06T04:25:37;9.93;92.49
70154;DHT22;57519;51.494;-2.626;2023-08-06T04:28:03;9.90;92.55
70154;DHT22;57519;51.494;-2.626;2023-08-06T04:30:29;9.91;92.60
70154;DHT22;57519;51.494;-2.626;2023-08-06T04:32:56;9.95;92.63
70154;DHT22;57519;51.494;-2.626;2023-08-06T04:35:23;9.88;92.76
70154;DHT22;57519;51.494;-2.626;2023-08-06T04:37:48;9.91;92.99
70154;DHT22;57519;51.494;-2.626;2023-08-06T04:40:14;9.90;92.60
70154;DHT22;57519;51.494;-2.626;2023-08-06T04:42:39;9.84;92.52
70154;DHT22;57519;51.494;-2.626;2023-08-06T04:45:05;9.85;92.73
70154;DHT22;57519;51.494;-2.626;2023-08-06T04:47:31;9.88;92.72
70154;DHT22;57519;51.494;-2.626;2023-08-06T04:49:57;9.95;92.72
70154;DHT22;57519;51.494;-2.626;2023-08-06T04:52:22;9.95;92.74
70154;DHT22;57519;51.494;-2.626;2023-08-06T04:54:47;9.91;92.57
70154;DHT22;57519;51.494;-2.626;2023-08-06T04:57:13;9.94;92.74
70154;DHT22;57519;51.494;-2.626;2023-08-06T04:59:39;9.99;92.82
70154;DHT22;57519;51.494;-2.626;2023-08-06T05:02:04;10.04;92.83
70154;DHT22;57519;51.494;-2.626;2023-08-06T05:04:30;10.05;92.71
70154;DHT22;57519;51.494;-2.626;2023-08-06T05:06:55;10.16;92.89
70154;DHT22;57519;51.494;-2.626;2023-08-06T05:09:21;10.26;92.84
70154;DHT22;57519;51.494;-2.626;2023-08-06T05:11:47;10.32;92.71
70154;DHT22;57519;51.494;-2.626;2023-08-06T05:14:12;10.41;92.69
70154;DHT22;57519;51.494;-2.626;2023-08-06T05:16:38;10.52;92.64
70154;DHT22;57519;51.494;-2.626;2023-08-06T05:19:04;10.48;92.24
70154;DHT22;57519;51.494;-2.626;2023-08-06T05:21:29;10.53;92.42
70154;DHT22;57519;51.494;-2.626;2023-08-06T05:23:54;10.48;92.28
70154;DHT22;57519;51.494;-2.626;2023-08-06T05:26:20;10.53;92.30
70154;DHT22;57519;51.494;-2.626;2023-08-06T05:28:45;10.48;92.20
70154;DHT22;57519;51.494;-2.626;2023-08-06T05:31:11;10.57;92.44
70154;DHT22;57519;51.494;-2.626;2023-08-06T05:33:36;10.57;92.41
70154;DHT22;57519;51.494;-2.626;2023-08-06T05:36:02;10.63;92.52
70154;DHT22;57519;51.494;-2.626;2023-08-06T05:38:28;10.80;92.72
70154;DHT22;57519;51.494;-2.626;2023-08-06T05:40:54;10.97;92.52
70154;DHT22;57519;51.494;-2.626;2023-08-06T05:43:20;11.12;92.30
70154;DHT22;57519;51.494;-2.626;2023-08-06T05:45:46;11.24;91.88
70154;DHT22;57519;51.494;-2.626;2023-08-06T05:48:12;11.48;91.88
70154;DHT22;57519;51.494;-2.626;2023-08-06T05:50:37;11.58;90.95
70154;DHT22;57519;51.494;-2.626;2023-08-06T05:53:03;11.70;90.75
70154;DHT22;57519;51.494;-2.626;2023-08-06T05:55:28;11.89;90.68
70154;DHT22;57519;51.494;-2.626;2023-08-06T05:57:54;11.97;90.60
70154;DHT22;57519;51.494;-2.626;2023-08-06T06:00:20;12.18;90.52
70154;DHT22;57519;51.494;-2.626;2023-08-06T06:02:46;12.38;90.39
70154;DHT22;57519;51.494;-2.626;2023-08-06T06:05:11;12.49;89.58
70154;DHT22;57519;51.494;-2.626;2023-08-06T06:07:37;12.62;89.30
70154;DHT22;57519;51.494;-2.626;2023-08-06T06:10:02;12.79;88.69
70154;DHT22;57519;51.494;-2.626;2023-08-06T06:12:28;12.90;87.91
70154;DHT22;57519;51.494;-2.626;2023-08-06T06:14:53;13.03;87.57
70154;DHT22;57519;51.494;-2.626;2023-08-06T06:17:19;13.20;87.33
70154;DHT22;57519;51.494;-2.626;2023-08-06T06:19:44;13.28;86.92
70154;DHT22;57519;51.494;-2.626;2023-08-06T06:22:09;13.40;86.73
70154;DHT22;57519;51.494;-2.626;2023-08-06T06:24:35;13.58;86.50
70154;DHT22;57519;51.494;-2.626;2023-08-06T06:27:00;13.66;86.14
70154;DHT22;57519;51.494;-2.626;2023-08-06T06:29:26;13.86;85.82
70154;DHT22;57519;51.494;-2.626;2023-08-06T06:31:51;14.12;85.44
70154;DHT22;57519;51.494;-2.626;2023-08-06T06:34:16;14.22;84.83
70154;DHT22;57519;51.494;-2.626;2023-08-06T06:36:42;14.33;84.61
70154;DHT22;57519;51.494;-2.626;2023-08-06T06:39:07;14.44;84.52
70154;DHT22;57519;51.494;-2.626;2023-08-06T06:41:33;14.53;84.51
70154;DHT22;57519;51.494;-2.626;2023-08-06T06:43:59;14.53;83.94
70154;DHT22;57519;51.494;-2.626;2023-08-06T06:46:24;14.56;83.45
70154;DHT22;57519;51.494;-2.626;2023-08-06T06:48:50;14.54;83.76
70154;DHT22;57519;51.494;-2.626;2023-08-06T06:51:15;14.51;83.39
70154;DHT22;57519;51.494;-2.626;2023-08-06T06:53:40;14.56;82.99
70154;DHT22;57519;51.494;-2.626;2023-08-06T06:56:06;14.51;83.04
70154;DHT22;57519;51.494;-2.626;2023-08-06T06:58:32;14.53;83.25
70154;DHT22;57519;51.494;-2.626;2023-08-06T07:00:57;14.57;83.23
70154;DHT22;57519;51.494;-2.626;2023-08-06T07:03:23;14.59;82.78
70154;DHT22;57519;51.494;-2.626;2023-08-06T07:05:49;14.68;82.36
70154;DHT22;57519;51.494;-2.626;2023-08-06T07:08:15;14.68;82.33
70154;DHT22;57519;51.494;-2.626;2023-08-06T07:10:41;14.71;82.21
70154;DHT22;57519;51.494;-2.626;2023-08-06T07:13:07;14.81;82.02
70154;DHT22;57519;51.494;-2.626;2023-08-06T07:15:32;14.93;81.69
70154;DHT22;57519;51.494;-2.626;2023-08-06T07:17:58;14.85;81.65
70154;DHT22;57519;51.494;-2.626;2023-08-06T07:20:23;14.95;81.63
70154;DHT22;57519;51.494;-2.626;2023-08-06T07:22:49;15.03;80.91
70154;DHT22;57519;51.494;-2.626;2023-08-06T07:25:16;15.16;80.30
70154;DHT22;57519;51.494;-2.626;2023-08-06T07:27:41;15.22;80.31
70154;DHT22;57519;51.494;-2.626;2023-08-06T07:30:07;15.32;79.83
70154;DHT22;57519;51.494;-2.626;2023-08-06T07:32:33;15.40;79.80
70154;DHT22;57519;51.494;-2.626;2023-08-06T07:34:59;15.43;79.74
70154;DHT22;57519;51.494;-2.626;2023-08-06T07:37:28;15.61;79.22
70154;DHT22;57519;51.494;-2.626;2023-08-06T07:39:54;15.90;78.52
70154;DHT22;57519;51.494;-2.626;2023-08-06T07:42:20;16.14;77.09
70154;DHT22;57519;51.494;-2.626;2023-08-06T07:44:56;16.38;75.88
70154;DHT22;57519;51.494;-2.626;2023-08-06T07:47:22;16.43;74.98
70154;DHT22;57519;51.494;-2.626;2023-08-06T07:49:47;16.49;74.73
70154;DHT22;57519;51.494;-2.626;2023-08-06T07:52:13;16.43;75.40
70154;DHT22;57519;51.494;-2.626;2023-08-06T07:54:38;16.41;74.77
70154;DHT22;57519;51.494;-2.626;2023-08-06T07:57:04;16.32;75.23
70154;DHT22;57519;51.494;-2.626;2023-08-06T07:59:30;16.57;75.30
70154;DHT22;57519;51.494;-2.626;2023-08-06T08:01:55;16.50;75.93
70154;DHT22;57519;51.494;-2.626;2023-08-06T08:04:21;16.42;75.59
70154;DHT22;57519;51.494;-2.626;2023-08-06T08:06:47;16.22;76.80
70154;DHT22;57519;51.494;-2.626;2023-08-06T08:09:12;16.23;76.71
70154;DHT22;57519;51.494;-2.626;2023-08-06T08:11:39;16.30;76.53
70154;DHT22;57519;51.494;-2.626;2023-08-06T08:14:04;16.30;76.22
70154;DHT22;57519;51.494;-2.626;2023-08-06T08:16:29;16.25;76.57
70154;DHT22;57519;51.494;-2.626;2023-08-06T08:18:55;16.26;76.46
70154;DHT22;57519;51.494;-2.626;2023-08-06T08:21:20;16.48;76.60
70154;DHT22;57519;51.494;-2.626;2023-08-06T08:23:46;16.94;76.02
70154;DHT22;57519;51.494;-2.626;2023-08-06T08:26:11;17.10;73.09
70154;DHT22;57519;51.494;-2.626;2023-08-06T08:28:36;17.27;72.76
70154;DHT22;57519;51.494;-2.626;2023-08-06T08:31:02;17.32;70.93
70154;DHT22;57519;51.494;-2.626;2023-08-06T08:33:27;17.55;72.50
70154;DHT22;57519;51.494;-2.626;2023-08-06T08:35:53;17.61;71.29
70154;DHT22;57519;51.494;-2.626;2023-08-06T08:38:18;17.63;71.32
70154;DHT22;57519;51.494;-2.626;2023-08-06T08:40:46;17.52;72.45
70154;DHT22;57519;51.494;-2.626;2023-08-06T08:43:15;17.19;73.54
70154;DHT22;57519;51.494;-2.626;2023-08-06T08:45:42;17.01;74.72
70154;DHT22;57519;51.494;-2.626;2023-08-06T08:48:10;16.90;74.10
70154;DHT22;57519;51.494;-2.626;2023-08-06T08:50:37;16.97;73.47
70154;DHT22;57519;51.494;-2.626;2023-08-06T08:53:02;17.06;74.20
70154;DHT22;57519;51.494;-2.626;2023-08-06T08:55:28;17.00;74.30
70154;DHT22;57519;51.494;-2.626;2023-08-06T08:57:54;16.76;73.66
70154;DHT22;57519;51.494;-2.626;2023-08-06T09:00:19;16.84;73.32
70154;DHT22;57519;51.494;-2.626;2023-08-06T09:02:45;16.83;73.03
70154;DHT22;57519;51.494;-2.626;2023-08-06T09:05:12;16.95;72.22
70154;DHT22;57519;51.494;-2.626;2023-08-06T09:07:42;16.95;72.16
70154;DHT22;57519;51.494;-2.626;2023-08-06T09:10:11;16.59;74.36
70154;DHT22;57519;51.494;-2.626;2023-08-06T09:12:39;15.88;80.02
70154;DHT22;57519;51.494;-2.626;2023-08-06T09:15:05;15.25;85.23
70154;DHT22;57519;51.494;-2.626;2023-08-06T09:17:31;14.81;87.11
70154;DHT22;57519;51.494;-2.626;2023-08-06T09:19:56;14.57;87.91
70154;DHT22;57519;51.494;-2.626;2023-08-06T09:22:22;14.36;89.41
70154;DHT22;57519;51.494;-2.626;2023-08-06T09:24:48;14.30;88.28
70154;DHT22;57519;51.494;-2.626;2023-08-06T09:27:14;14.68;89.55
70154;DHT22;57519;51.494;-2.626;2023-08-06T09:29:44;15.02;87.60
70154;DHT22;57519;51.494;-2.626;2023-08-06T09:32:13;15.42;87.76
70154;DHT22;57519;51.494;-2.626;2023-08-06T09:34:41;15.58;86.65
70154;DHT22;57519;51.494;-2.626;2023-08-06T09:37:08;15.50;85.32
70154;DHT22;57519;51.494;-2.626;2023-08-06T09:39:34;15.44;85.62
70154;DHT22;57519;51.494;-2.626;2023-08-06T09:42:01;15.42;86.42
70154;DHT22;57519;51.494;-2.626;2023-08-06T09:44:28;15.43;84.20
70154;DHT22;57519;51.494;-2.626;2023-08-06T09:46:55;15.68;85.97
70154;DHT22;57519;51.494;-2.626;2023-08-06T09:49:47;15.74;84.72
70154;DHT22;57519;51.494;-2.626;2023-08-06T09:52:17;15.78;84.56
70154;DHT22;57519;51.494;-2.626;2023-08-06T09:54:43;15.64;83.48
70154;DHT22;57519;51.494;-2.626;2023-08-06T09:57:11;15.50;84.17
70154;DHT22;57519;51.494;-2.626;2023-08-06T09:59:38;15.54;84.11
70154;DHT22;57519;51.494;-2.626;2023-08-06T10:02:13;15.75;85.88
70154;DHT22;57519;51.494;-2.626;2023-08-06T10:04:39;15.94;85.89
70154;DHT22;57519;51.494;-2.626;2023-08-06T10:07:05;16.02;82.72
70154;DHT22;57519;51.494;-2.626;2023-08-06T10:09:30;16.23;83.37
70154;DHT22;57519;51.494;-2.626;2023-08-06T10:11:57;16.39;81.22
70154;DHT22;57519;51.494;-2.626;2023-08-06T10:14:28;16.66;80.51
70154;DHT22;57519;51.494;-2.626;2023-08-06T10:16:57;16.76;80.89
70154;DHT22;57519;51.494;-2.626;2023-08-06T10:19:24;16.63;77.75
70154;DHT22;57519;51.494;-2.626;2023-08-06T10:24:55;17.22;79.30
70154;DHT22;57519;51.494;-2.626;2023-08-06T10:27:40;17.46;79.39
70154;DHT22;57519;51.494;-2.626;2023-08-06T10:30:43;17.82;77.74
70154;DHT22;57519;51.494;-2.626;2023-08-06T10:33:09;18.00;73.65
70154;DHT22;57519;51.494;-2.626;2023-08-06T10:38:09;18.00;71.01
70154;DHT22;57519;51.494;-2.626;2023-08-06T10:40:36;17.98;74.69
70154;DHT22;57519;51.494;-2.626;2023-08-06T10:43:03;17.76;73.73
70154;DHT22;57519;51.494;-2.626;2023-08-06T10:45:29;18.04;74.61
70154;DHT22;57519;51.494;-2.626;2023-08-06T10:47:56;17.94;71.92
70154;DHT22;57519;51.494;-2.626;2023-08-06T10:50:23;18.03;72.77
70154;DHT22;57519;51.494;-2.626;2023-08-06T10:52:49;18.45;73.63
70154;DHT22;57519;51.494;-2.626;2023-08-06T10:55:25;18.28;70.31
70154;DHT22;57519;51.494;-2.626;2023-08-06T10:57:52;18.52;71.06
70154;DHT22;57519;51.494;-2.626;2023-08-06T11:00:17;18.52;69.19
70154;DHT22;57519;51.494;-2.626;2023-08-06T11:02:43;18.48;69.58
70154;DHT22;57519;51.494;-2.626;2023-08-06T11:05:11;18.27;68.78
70154;DHT22;57519;51.494;-2.626;2023-08-06T11:07:37;18.04;70.42
70154;DHT22;57519;51.494;-2.626;2023-08-06T11:10:04;18.08;69.67
70154;DHT22;57519;51.494;-2.626;2023-08-06T11:12:31;18.17;70.04
70154;DHT22;57519;51.494;-2.626;2023-08-06T11:14:57;18.20;72.16
70154;DHT22;57519;51.494;-2.626;2023-08-06T11:17:22;18.00;70.61
70154;DHT22;57519;51.494;-2.626;2023-08-06T11:19:48;18.00;71.27
70154;DHT22;57519;51.494;-2.626;2023-08-06T11:22:14;17.94;72.05
70154;DHT22;57519;51.494;-2.626;2023-08-06T11:24:40;17.96;72.27
70154;DHT22;57519;51.494;-2.626;2023-08-06T11:27:13;18.04;72.86
70154;DHT22;57519;51.494;-2.626;2023-08-06T11:29:39;18.13;71.59
70154;DHT22;57519;51.494;-2.626;2023-08-06T11:32:05;18.18;68.10
70154;DHT22;57519;51.494;-2.626;2023-08-06T11:34:31;18.37;68.62
70154;DHT22;57519;51.494;-2.626;2023-08-06T11:36:56;18.61;70.47
70154;DHT22;57519;51.494;-2.626;2023-08-06T11:39:23;18.83;68.71
70154;DHT22;57519;51.494;-2.626;2023-08-06T11:41:48;18.89;67.17
70154;DHT22;57519;51.494;-2.626;2023-08-06T11:44:14;18.58;66.07
70154;DHT22;57519;51.494;-2.626;2023-08-06T11:46:52;18.65;66.83
70154;DHT22;57519;51.494;-2.626;2023-08-06T11:49:21;18.90;67.53
70154;DHT22;57519;51.494;-2.626;2023-08-06T11:51:47;18.73;65.66
70154;DHT22;57519;51.494;-2.626;2023-08-06T11:54:13;18.65;67.82
70154;DHT22;57519;51.494;-2.626;2023-08-06T11:56:38;18.24;69.99
70154;DHT22;57519;51.494;-2.626;2023-08-06T11:59:04;18.21;70.92
70154;DHT22;57519;51.494;-2.626;2023-08-06T12:01:30;18.47;71.26
70154;DHT22;57519;51.494;-2.626;2023-08-06T12:03:59;18.40;71.09
70154;DHT22;57519;51.494;-2.626;2023-08-06T12:06:28;18.65;71.86
70154;DHT22;57519;51.494;-2.626;2023-08-06T12:08:53;18.72;71.14
70154;DHT22;57519;51.494;-2.626;2023-08-06T12:11:21;18.65;70.57
70154;DHT22;57519;51.494;-2.626;2023-08-06T12:13:51;18.42;69.59
70154;DHT22;57519;51.494;-2.626;2023-08-06T12:16:16;18.59;67.54
70154;DHT22;57519;51.494;-2.626;2023-08-06T12:18:44;18.68;69.34
70154;DHT22;57519;51.494;-2.626;2023-08-06T12:21:09;18.56;66.95
70154;DHT22;57519;51.494;-2.626;2023-08-06T12:23:35;18.44;67.01
70154;DHT22;57519;51.494;-2.626;2023-08-06T12:26:01;18.49;66.30
70154;DHT22;57519;51.494;-2.626;2023-08-06T12:28:27;18.49;66.47
70154;DHT22;57519;51.494;-2.626;2023-08-06T12:30:52;18.72;66.60
70154;DHT22;57519;51.494;-2.626;2023-08-06T12:33:20;18.92;64.68
70154;DHT22;57519;51.494;-2.626;2023-08-06T12:35:45;18.93;65.34
70154;DHT22;57519;51.494;-2.626;2023-08-06T12:38:11;18.82;66.76
70154;DHT22;57519;51.494;-2.626;2023-08-06T12:40:36;18.69;65.56
70154;DHT22;57519;51.494;-2.626;2023-08-06T12:43:02;18.69;66.88
70154;DHT22;57519;51.494;-2.626;2023-08-06T12:45:27;18.86;65.50
70154;DHT22;57519;51.494;-2.626;2023-08-06T12:47:53;19.16;65.30
70154;DHT22;57519;51.494;-2.626;2023-08-06T12:50:19;19.39;63.99
70154;DHT22;57519;51.494;-2.626;2023-08-06T12:52:44;19.95;64.99
70154;DHT22;57519;51.494;-2.626;2023-08-06T12:55:09;20.24;62.55
70154;DHT22;57519;51.494;-2.626;2023-08-06T12:57:35;20.17;64.70
70154;DHT22;57519;51.494;-2.626;2023-08-06T13:00:01;20.22;64.46
70154;DHT22;57519;51.494;-2.626;2023-08-06T13:02:26;19.81;64.30
70154;DHT22;57519;51.494;-2.626;2023-08-06T13:04:55;19.59;65.26
70154;DHT22;57519;51.494;-2.626;2023-08-06T13:07:20;19.31;66.72
70154;DHT22;57519;51.494;-2.626;2023-08-06T13:09:46;19.09;65.92
70154;DHT22;57519;51.494;-2.626;2023-08-06T13:12:11;18.83;68.42
70154;DHT22;57519;51.494;-2.626;2023-08-06T13:14:37;18.76;67.76
70154;DHT22;57519;51.494;-2.626;2023-08-06T13:17:02;18.68;64.46
70154;DHT22;57519;51.494;-2.626;2023-08-06T13:19:31;18.76;65.02
70154;DHT22;57519;51.494;-2.626;2023-08-06T13:22:02;19.13;65.29
70154;DHT22;57519;51.494;-2.626;2023-08-06T13:24:30;19.31;64.90
70154;DHT22;57519;51.494;-2.626;2023-08-06T13:26:55;19.86;67.29
70154;DHT22;57519;51.494;-2.626;2023-08-06T13:29:21;19.74;63.54
70154;DHT22;57519;51.494;-2.626;2023-08-06T13:31:46;19.30;64.21
70154;DHT22;57519;51.494;-2.626;2023-08-06T13:34:14;18.48;72.74
70154;DHT22;57519;51.494;-2.626;2023-08-06T13:36:42;16.97;80.93
70154;DHT22;57519;51.494;-2.626;2023-08-06T13:39:08;16.50;84.40
70154;DHT22;57519;51.494;-2.626;2023-08-06T13:41:33;16.16;86.09
70154;DHT22;57519;51.494;-2.626;2023-08-06T13:43:59;16.29;86.55
70154;DHT22;57519;51.494;-2.626;2023-08-06T13:46:24;16.42;88.02
70154;DHT22;57519;51.494;-2.626;2023-08-06T13:48:50;16.60;88.14
70154;DHT22;57519;51.494;-2.626;2023-08-06T13:51:18;16.80;87.95
70154;DHT22;57519;51.494;-2.626;2023-08-06T13:53:44;17.04;88.86
70154;DHT22;57519;51.494;-2.626;2023-08-06T13:56:10;17.38;87.73
70154;DHT22;57519;51.494;-2.626;2023-08-06T13:58:37;17.34;84.81
70154;DHT22;57519;51.494;-2.626;2023-08-06T14:01:02;17.48;86.23
70154;DHT22;57519;51.494;-2.626;2023-08-06T14:03:28;17.70;86.88
70154;DHT22;57519;51.494;-2.626;2023-08-06T14:05:54;17.93;85.91
70154;DHT22;57519;51.494;-2.626;2023-08-06T14:08:23;18.13;85.29
70154;DHT22;57519;51.494;-2.626;2023-08-06T14:10:49;18.34;86.02
70154;DHT22;57519;51.494;-2.626;2023-08-06T14:13:14;18.32;85.70
70154;DHT22;57519;51.494;-2.626;2023-08-06T14:15:40;18.04;83.50
70154;DHT22;57519;51.494;-2.626;2023-08-06T14:18:09;17.87;79.67
70154;DHT22;57519;51.494;-2.626;2023-08-06T14:20:34;17.77;82.55
70154;DHT22;57519;51.494;-2.626;2023-08-06T14:23:00;17.87;83.41
70154;DHT22;57519;51.494;-2.626;2023-08-06T14:25:25;17.96;83.33
70154;DHT22;57519;51.494;-2.626;2023-08-06T14:27:51;18.15;81.83
70154;DHT22;57519;51.494;-2.626;2023-08-06T14:30:16;18.23;79.44
70154;DHT22;57519;51.494;-2.626;2023-08-06T14:32:42;18.41;73.71
70154;DHT22;57519;51.494;-2.626;2023-08-06T14:35:07;18.47;75.70
70154;DHT22;57519;51.494;-2.626;2023-08-06T14:37:33;18.77;78.69
70154;DHT22;57519;51.494;-2.626;2023-08-06T14:39:58;18.82;73.96
70154;DHT22;57519;51.494;-2.626;2023-08-06T14:42:24;18.75;78.56
70154;DHT22;57519;51.494;-2.626;2023-08-06T14:44:49;18.48;72.36
70154;DHT22;57519;51.494;-2.626;2023-08-06T14:47:15;18.38;76.61
70154;DHT22;57519;51.494;-2.626;2023-08-06T14:49:41;18.25;76.38
70154;DHT22;57519;51.494;-2.626;2023-08-06T14:52:06;18.45;73.46
70154;DHT22;57519;51.494;-2.626;2023-08-06T14:54:32;19.06;75.37
70154;DHT22;57519;51.494;-2.626;2023-08-06T14:56:57;19.31;74.27
70154;DHT22;57519;51.494;-2.626;2023-08-06T14:59:22;19.38;69.56
70154;DHT22;57519;51.494;-2.626;2023-08-06T15:01:48;19.31;66.97
70154;DHT22;57519;51.494;-2.626;2023-08-06T15:04:13;19.58;71.49
70154;DHT22;57519;51.494;-2.626;2023-08-06T15:06:39;19.62;69.72
70154;DHT22;57519;51.494;-2.626;2023-08-06T15:09:04;19.51;67.01
70154;DHT22;57519;51.494;-2.626;2023-08-06T15:11:30;19.23;66.57
70154;DHT22;57519;51.494;-2.626;2023-08-06T15:13:55;18.93;69.06
70154;DHT22;57519;51.494;-2.626;2023-08-06T15:16:20;18.79;68.49
70154;DHT22;57519;51.494;-2.626;2023-08-06T15:18:46;18.86;69.49
70154;DHT22;57519;51.494;-2.626;2023-08-06T15:21:11;18.80;68.29
70154;DHT22;57519;51.494;-2.626;2023-08-06T15:23:37;18.71;72.56
70154;DHT22;57519;51.494;-2.626;2023-08-06T15:26:02;18.51;72.71
70154;DHT22;57519;51.494;-2.626;2023-08-06T15:28:28;18.38;69.64